createdAt,value
2023-07-09T00:01:08.039Z,4.47
2023-07-09T00:03:38.909Z,4.05
2023-07-09T00:06:12.461Z,4.68
2023-07-09T00:08:48.114Z,4.40
2023-07-09T00:11:21.887Z,4.00
2023-07-09T00:13:52.781Z,3.88
2023-07-09T00:16:27.242Z,3.97
2023-07-09T00:18:58.115Z,3.95
2023-07-09T00:21:34.806Z,4.20
2023-07-09T00:24:06.793Z,4.78
2023-07-09T00:26:42.016Z,4.00
2023-07-09T00:29:14.193Z,3.88
2023-07-09T00:31:45.349Z,4.53
2023-07-09T00:34:23.296Z,4.35
2023-07-09T00:36:55.269Z,3.78
2023-07-09T00:39:28.406Z,3.85
2023-07-09T00:42:01.803Z,4.05
2023-07-09T00:44:34.889Z,3.70
2023-07-09T00:47:28.154Z,3.80
2023-07-09T00:50:10.927Z,3.78
2023-07-09T00:52:47.421Z,4.40
2023-07-09T00:55:21.649Z,3.63
2023-07-09T00:58:00.336Z,4.07
2023-07-09T01:00:39.095Z,3.85
2023-07-09T01:03:11.723Z,3.80
2023-07-09T01:05:45.080Z,4.25
2023-07-09T01:08:16.227Z,3.70
2023-07-09T01:10:47.032Z,4.07
2023-07-09T01:13:22.315Z,3.45
2023-07-09T01:15:55.139Z,4.63
2023-07-09T01:18:26.319Z,3.53
2023-07-09T01:21:07.857Z,3.70
2023-07-09T01:23:38.685Z,3.92
2023-07-09T01:26:09.427Z,3.78
2023-07-09T01:28:43.342Z,3.78
2023-07-09T01:33:47.312Z,3.58
2023-07-09T01:36:25.562Z,4.07
2023-07-09T01:38:57.652Z,3.50
2023-07-09T01:41:28.784Z,4.28
2023-07-09T01:43:59.778Z,4.07
2023-07-09T01:46:31.884Z,3.75
2023-07-09T01:49:02.838Z,4.18
2023-07-09T01:51:37.581Z,3.88
2023-07-09T01:54:09.471Z,4.53
2023-07-09T01:56:40.673Z,3.95
2023-07-09T01:59:12.526Z,3.95
2023-07-09T02:01:43.989Z,3.72
2023-07-09T02:04:14.797Z,4.28
2023-07-09T02:06:48.272Z,3.90
2023-07-09T02:09:19.230Z,4.50
2023-07-09T02:11:50.054Z,4.43
2023-07-09T02:14:20.933Z,4.50
2023-07-09T02:16:52.331Z,4.43
2023-07-09T02:19:23.511Z,4.18
2023-07-09T02:21:56.954Z,4.65
2023-07-09T02:24:29.076Z,4.68
2023-07-09T02:27:01.022Z,4.15
2023-07-09T02:29:33.628Z,4.13
2023-07-09T02:32:05.609Z,4.22
2023-07-09T02:34:36.617Z,4.10
2023-07-09T02:37:09.994Z,4.22
2023-07-09T02:39:40.829Z,4.60
2023-07-09T02:42:13.406Z,4.10
2023-07-09T02:44:45.302Z,4.63
2023-07-09T02:47:18.312Z,4.00
2023-07-09T02:49:49.798Z,4.03
2023-07-09T02:52:23.162Z,4.20
2023-07-09T02:54:54.023Z,4.65
2023-07-09T02:57:24.817Z,4.03
2023-07-09T02:59:55.899Z,4.10
2023-07-09T03:02:27.422Z,4.65
2023-07-09T03:04:58.347Z,4.32
2023-07-09T03:07:31.850Z,3.78
2023-07-09T03:10:02.740Z,4.00
2023-07-09T03:12:34.867Z,4.07
2023-07-09T03:15:05.808Z,4.10
2023-07-09T03:17:36.636Z,4.07
2023-07-09T03:20:09.361Z,4.28
2023-07-09T03:22:42.752Z,4.18
2023-07-09T03:25:13.877Z,4.30
2023-07-09T03:27:45.044Z,4.07
2023-07-09T03:30:16.764Z,3.60
2023-07-09T03:32:48.430Z,3.70
2023-07-09T03:35:19.604Z,4.03
2023-07-09T03:37:53.278Z,3.83
2023-07-09T03:40:26.727Z,3.65
2023-07-09T03:42:57.674Z,4.03
2023-07-09T03:45:29.016Z,3.50
2023-07-09T03:47:59.826Z,4.07
2023-07-09T03:50:30.715Z,4.00
2023-07-09T03:53:04.389Z,3.40
2023-07-09T03:55:35.285Z,3.90
2023-07-09T03:58:06.911Z,3.80
2023-07-09T04:00:38.224Z,4.05
2023-07-09T04:03:10.025Z,3.25
2023-07-09T04:05:41.210Z,3.65
2023-07-09T04:08:14.560Z,3.38
2023-07-09T04:10:45.604Z,3.20
2023-07-09T04:13:16.796Z,3.22
2023-07-09T04:15:48.662Z,4.03
2023-07-09T04:18:19.524Z,3.28
2023-07-09T04:20:53.666Z,3.20
2023-07-09T04:23:27.085Z,3.72
2023-07-09T04:25:58.963Z,3.60
2023-07-09T04:28:29.747Z,3.30
2023-07-09T04:31:00.915Z,3.90
2023-07-09T04:33:31.899Z,3.10
2023-07-09T04:36:02.892Z,3.08
2023-07-09T04:38:36.645Z,2.90
2023-07-09T04:41:08.148Z,3.22
2023-07-09T04:43:38.972Z,3.20
2023-07-09T04:46:09.876Z,3.70
2023-07-09T04:48:40.743Z,2.95
2023-07-09T04:51:11.652Z,2.80
2023-07-09T04:53:45.234Z,3.13
2023-07-09T04:56:16.153Z,3.30
2023-07-09T04:58:46.919Z,3.45
2023-07-09T05:01:17.865Z,3.10
2023-07-09T05:03:48.843Z,3.00
2023-07-09T05:06:20.306Z,2.78
2023-07-09T05:08:53.692Z,3.10
2023-07-09T05:11:24.775Z,2.97
2023-07-09T05:13:55.681Z,3.03
2023-07-09T05:16:26.672Z,2.38
2023-07-09T05:18:57.653Z,2.80
2023-07-09T05:21:28.671Z,2.75
2023-07-09T05:24:02.081Z,2.70
2023-07-09T05:26:32.987Z,2.97
2023-07-09T05:29:03.838Z,3.10
2023-07-09T05:31:34.878Z,2.70
2023-07-09T05:34:05.733Z,2.40
2023-07-09T05:36:36.569Z,2.75
2023-07-09T05:39:10.555Z,2.67
2023-07-09T05:41:41.448Z,2.85
2023-07-09T05:44:12.329Z,2.40
2023-07-09T05:46:43.218Z,2.30
2023-07-09T05:49:14.737Z,2.13
2023-07-09T05:51:45.959Z,2.40
2023-07-09T05:54:20.166Z,2.25
2023-07-09T05:56:51.009Z,2.45
2023-07-09T05:59:21.892Z,2.90
2023-07-09T06:01:52.679Z,2.50
2023-07-09T06:04:23.474Z,2.30
2023-07-09T06:06:55.092Z,2.30
2023-07-09T06:09:28.920Z,2.42
2023-07-09T06:11:59.817Z,2.47
2023-07-09T06:14:30.720Z,2.47
2023-07-09T06:17:01.628Z,2.42
2023-07-09T06:19:32.433Z,2.38
2023-07-09T06:22:03.279Z,2.10
2023-07-09T06:24:36.929Z,2.55
2023-07-09T06:27:08.310Z,2.28
2023-07-09T06:29:39.054Z,2.28
2023-07-09T06:32:10.748Z,2.45
2023-07-09T06:34:41.428Z,2.05
2023-07-09T06:37:12.245Z,2.60
2023-07-09T06:39:45.770Z,2.70
2023-07-09T06:42:16.600Z,3.08
2023-07-09T06:45:09.991Z,2.40
2023-07-09T06:47:40.855Z,2.38
2023-07-09T06:50:12.438Z,2.33
2023-07-09T06:52:43.441Z,2.28
2023-07-09T06:55:17.144Z,2.40
2023-07-09T06:57:47.995Z,2.60
2023-07-09T07:00:20.632Z,2.75
2023-07-09T07:02:51.416Z,2.70
2023-07-09T07:05:23.535Z,2.40
2023-07-09T07:07:54.698Z,2.50
2023-07-09T07:10:28.211Z,2.30
2023-07-09T07:12:59.272Z,2.42
2023-07-09T07:15:30.168Z,2.42
2023-07-09T07:18:01.090Z,2.60
2023-07-09T07:20:32.026Z,2.60
2023-07-09T07:23:02.915Z,2.67
2023-07-09T07:25:37.120Z,2.53
2023-07-09T07:30:38.642Z,2.70
2023-07-09T07:33:09.428Z,2.33
2023-07-09T07:36:00.200Z,2.50
2023-07-09T07:38:31.883Z,2.20
2023-07-09T07:41:05.443Z,2.40
2023-07-09T07:43:36.241Z,5.88
2023-07-09T07:46:07.651Z,2.90
2023-07-09T07:48:38.771Z,2.40
2023-07-09T07:51:09.573Z,3.03
2023-07-09T07:53:40.425Z,2.25
2023-07-09T07:56:14.514Z,2.30
2023-07-09T07:58:45.405Z,2.50
2023-07-09T08:01:16.226Z,2.20
2023-07-09T08:03:47.114Z,2.30
2023-07-09T08:06:17.865Z,2.40
2023-07-09T08:08:48.650Z,2.75
2023-07-09T08:11:22.093Z,2.42
2023-07-09T08:13:52.940Z,2.43
2023-07-09T08:16:23.873Z,2.53
2023-07-09T08:18:56.173Z,2.55
2023-07-09T08:21:27.093Z,2.47
2023-07-09T08:23:58.042Z,2.67
2023-07-09T08:26:32.744Z,2.67
2023-07-09T08:29:03.555Z,2.55
2023-07-09T08:31:34.222Z,2.55
2023-07-09T08:34:05.055Z,2.30
2023-07-09T08:36:35.806Z,2.50
2023-07-09T08:39:07.717Z,2.50
2023-07-09T08:41:47.143Z,2.40
2023-07-09T08:44:41.022Z,2.50
2023-07-09T08:47:21.222Z,2.70
2023-07-09T08:49:57.503Z,2.10
2023-07-09T08:52:32.772Z,2.30
2023-07-09T08:55:08.696Z,2.60
2023-07-09T08:57:44.589Z,2.30
2023-07-09T09:00:21.098Z,2.47
2023-07-09T09:02:57.526Z,2.50
2023-07-09T09:05:30.569Z,2.65
2023-07-09T09:08:08.599Z,2.40
2023-07-09T09:10:47.065Z,2.40
2023-07-09T09:13:25.075Z,2.47
2023-07-09T09:15:56.306Z,2.40
2023-07-09T09:18:30.204Z,2.70
2023-07-09T09:21:09.968Z,2.17
2023-07-09T09:23:47.141Z,2.30
2023-07-09T09:26:22.969Z,2.63
2023-07-09T09:28:57.120Z,2.13
2023-07-09T09:33:59.581Z,2.20
2023-07-09T09:36:31.312Z,2.55
2023-07-09T09:39:06.374Z,2.47
2023-07-09T09:41:41.611Z,2.60
2023-07-09T09:44:23.927Z,2.40
2023-07-09T09:46:55.280Z,2.10
2023-07-09T09:49:26.553Z,2.30
2023-07-09T09:51:57.869Z,2.40
2023-07-09T09:54:32.603Z,2.97
2023-07-09T09:57:03.609Z,3.03
2023-07-09T09:59:40.799Z,2.38
2023-07-09T10:02:20.413Z,2.40
2023-07-09T10:04:51.965Z,2.63
2023-07-09T10:07:31.501Z,2.42
2023-07-09T10:10:02.620Z,2.45
2023-07-09T10:12:44.301Z,2.88
2023-07-09T10:15:43.004Z,2.17
2023-07-09T10:18:25.550Z,2.20
2023-07-09T10:21:07.230Z,2.40
2023-07-09T10:23:48.713Z,2.30
2023-07-09T10:26:26.396Z,2.67
2023-07-09T10:29:26.493Z,2.08
2023-07-09T10:32:07.402Z,2.33
2023-07-09T10:34:48.058Z,2.50
2023-07-09T10:37:38.985Z,2.30
2023-07-09T10:40:14.338Z,2.70
2023-07-09T10:42:49.979Z,2.47
2023-07-09T10:45:27.687Z,2.30
2023-07-09T10:48:05.461Z,2.40
2023-07-09T10:50:40.875Z,2.28
2023-07-09T10:53:18.083Z,2.85
2023-07-09T10:55:57.666Z,2.70
2023-07-09T10:58:39.191Z,2.40
2023-07-09T11:01:10.024Z,2.42
2023-07-09T11:03:48.937Z,2.40
2023-07-09T11:06:25.030Z,2.40
2023-07-09T11:09:00.150Z,2.63
2023-07-09T11:11:38.697Z,2.72
2023-07-09T11:14:15.820Z,2.90
2023-07-09T11:16:48.130Z,2.50
2023-07-09T11:19:23.943Z,2.70
2023-07-09T11:22:08.978Z,2.60
2023-07-09T11:24:52.005Z,2.92
2023-07-09T11:27:26.140Z,2.50
2023-07-09T11:30:04.489Z,2.85
2023-07-09T11:32:38.675Z,2.53
2023-07-09T11:35:26.856Z,2.30
2023-07-09T11:38:00.332Z,2.50
2023-07-09T11:40:31.190Z,2.57
2023-07-09T11:43:03.424Z,2.47
2023-07-09T11:45:36.912Z,2.75
2023-07-09T11:48:21.008Z,3.13
2023-07-09T11:50:56.758Z,2.73
2023-07-09T11:53:38.613Z,2.70
2023-07-09T11:56:14.838Z,2.47
2023-07-09T11:58:54.306Z,2.45
2023-07-09T12:01:27.481Z,2.50
2023-07-09T12:04:01.726Z,2.65
2023-07-09T12:06:37.672Z,2.65
2023-07-09T12:09:08.491Z,3.00
2023-07-09T12:11:39.354Z,2.50
2023-07-09T12:14:18.806Z,2.60
2023-07-09T12:16:51.584Z,2.60
2023-07-09T12:19:24.309Z,2.63
2023-07-09T12:22:01.039Z,2.65
2023-07-09T12:24:34.390Z,2.47
2023-07-09T12:27:07.008Z,3.00
2023-07-09T12:29:40.920Z,2.60
2023-07-09T12:32:18.572Z,2.60
2023-07-09T12:34:52.208Z,2.40
2023-07-09T12:37:26.527Z,2.70
2023-07-09T12:39:57.716Z,2.60
2023-07-09T12:42:34.990Z,2.53
2023-07-09T12:45:06.802Z,2.33
2023-07-09T12:47:38.317Z,2.38
2023-07-09T12:50:22.777Z,2.80
2023-07-09T12:52:59.110Z,2.38
2023-07-09T12:55:32.495Z,2.78
2023-07-09T12:58:04.305Z,2.47
2023-07-09T13:00:35.518Z,2.70
2023-07-09T13:03:06.835Z,2.97
2023-07-09T13:05:37.695Z,2.67
2023-07-09T13:08:18.805Z,2.42
2023-07-09T13:10:52.237Z,2.53
2023-07-09T13:13:26.109Z,2.58
2023-07-09T13:16:02.820Z,2.45
2023-07-09T13:18:33.786Z,2.40
2023-07-09T13:21:14.862Z,2.70
2023-07-09T13:23:48.520Z,2.50
2023-07-09T13:26:20.178Z,2.30
2023-07-09T13:28:52.679Z,2.17
2023-07-09T13:31:24.978Z,2.60
2023-07-09T13:34:00.875Z,3.25
2023-07-09T13:36:31.691Z,2.88
2023-07-09T13:39:05.050Z,2.35
2023-07-09T13:41:35.964Z,2.63
2023-07-09T13:44:14.994Z,2.53
2023-07-09T13:46:45.865Z,2.50
2023-07-09T13:49:20.215Z,2.60
2023-07-09T13:51:52.436Z,2.58
2023-07-09T13:54:28.502Z,2.60
2023-07-09T13:56:59.243Z,2.83
2023-07-09T13:59:32.749Z,2.42
2023-07-09T14:02:07.095Z,2.65
2023-07-09T14:04:38.253Z,2.70
2023-07-09T14:07:13.486Z,2.53
2023-07-09T14:09:46.811Z,2.60
2023-07-09T14:12:17.661Z,2.90
2023-07-09T14:14:48.555Z,2.83
2023-07-09T14:17:19.430Z,2.55
2023-07-09T14:19:50.367Z,2.75
2023-07-09T14:22:34.742Z,2.78
2023-07-09T14:25:09.937Z,2.90
2023-07-09T14:27:40.796Z,2.47
2023-07-09T14:30:18.413Z,2.35
2023-07-09T14:32:51.528Z,2.45
2023-07-09T14:35:24.746Z,2.40
2023-07-09T14:38:00.381Z,2.92
2023-07-09T14:40:33.884Z,2.70
2023-07-09T14:43:04.960Z,2.55
2023-07-09T14:45:36.381Z,2.80
2023-07-09T14:48:14.155Z,2.85
2023-07-09T14:50:46.077Z,3.83
2023-07-09T14:53:19.340Z,3.47
2023-07-09T14:55:53.218Z,2.95
2023-07-09T14:58:25.533Z,3.10
2023-07-09T15:00:57.089Z,2.95
2023-07-09T15:03:30.883Z,3.92
2023-07-09T15:06:04.124Z,2.90
2023-07-09T15:08:34.939Z,3.13
2023-07-09T15:11:08.628Z,2.97
2023-07-09T15:13:40.941Z,2.63
2023-07-09T15:16:12.977Z,2.88
2023-07-09T15:18:44.150Z,3.03
2023-07-09T15:21:16.617Z,3.15
2023-07-09T15:23:48.574Z,3.13
2023-07-09T15:26:21.932Z,2.65
2023-07-09T15:28:52.871Z,3.00
2023-07-09T15:31:23.769Z,3.10
2023-07-09T15:33:54.691Z,3.38
2023-07-09T15:36:25.550Z,3.53
2023-07-09T15:38:56.598Z,3.33
2023-07-09T15:41:30.200Z,3.33
2023-07-09T15:44:01.124Z,3.05
2023-07-09T15:46:32.125Z,3.30
2023-07-09T15:49:02.877Z,3.50
2023-07-09T15:51:33.732Z,3.40
2023-07-09T15:54:04.676Z,3.15
2023-07-09T15:56:39.031Z,3.00
2023-07-09T15:59:10.228Z,2.80
2023-07-09T16:01:40.992Z,3.10
2023-07-09T16:04:13.768Z,3.20
2023-07-09T16:06:44.859Z,3.00
2023-07-09T16:09:16.153Z,3.25
2023-07-09T16:11:52.114Z,2.83
2023-07-09T16:14:28.077Z,3.13
2023-07-09T16:17:00.129Z,2.80
2023-07-09T16:19:32.692Z,2.90
2023-07-09T16:22:06.860Z,3.80
2023-07-09T16:24:39.702Z,3.22
2023-07-09T16:27:19.144Z,3.30
2023-07-09T16:29:49.944Z,2.85
2023-07-09T16:32:20.795Z,5.50
2023-07-09T16:34:51.584Z,4.22
2023-07-09T16:37:26.806Z,3.53
2023-07-09T16:39:57.486Z,3.35
2023-07-09T16:42:31.538Z,3.55
2023-07-09T16:45:02.448Z,3.40
2023-07-09T16:47:36.209Z,3.05
2023-07-09T16:50:07.726Z,4.57
2023-07-09T16:52:38.463Z,3.60
2023-07-09T16:55:11.349Z,4.00
2023-07-09T16:57:45.187Z,3.42
2023-07-09T17:00:30.067Z,3.22
2023-07-09T17:03:04.680Z,4.20
2023-07-09T17:05:36.966Z,3.38
2023-07-09T17:08:08.172Z,3.50
2023-07-09T17:10:39.212Z,3.55
2023-07-09T17:13:16.758Z,10.25
2023-07-09T17:15:47.570Z,4.38
2023-07-09T17:18:23.086Z,4.20
2023-07-09T17:20:56.369Z,3.88
2023-07-09T17:23:30.449Z,3.70
2023-07-09T17:26:03.369Z,3.63
2023-07-09T17:28:37.373Z,3.30
2023-07-09T17:31:08.221Z,3.08
2023-07-09T17:33:40.242Z,2.85
2023-07-09T17:36:17.829Z,3.08
2023-07-09T17:38:50.290Z,3.95
2023-07-09T17:41:21.225Z,3.10
2023-07-09T17:43:54.791Z,3.03
2023-07-09T17:46:26.514Z,3.20
2023-07-09T17:48:57.377Z,3.35
2023-07-09T17:51:28.278Z,3.22
2023-07-09T17:53:59.006Z,3.25
2023-07-09T17:56:31.150Z,3.83
2023-07-09T17:59:05.039Z,3.38
2023-07-09T18:01:36.073Z,3.43
2023-07-09T18:04:22.725Z,4.10
2023-07-09T18:07:02.579Z,4.18
2023-07-09T18:09:34.616Z,3.97
2023-07-09T18:12:05.507Z,4.43
2023-07-09T18:14:42.103Z,4.18
2023-07-09T18:17:19.337Z,4.82
2023-07-09T18:19:50.249Z,4.30
2023-07-09T18:22:24.313Z,3.95
2023-07-09T18:24:55.084Z,4.57
2023-07-09T18:27:28.986Z,4.55
2023-07-09T18:30:02.849Z,4.35
2023-07-09T18:32:35.443Z,4.65
2023-07-09T18:35:22.091Z,4.30
2023-07-09T18:37:55.509Z,4.40
2023-07-09T18:40:26.401Z,4.40
2023-07-09T18:42:57.395Z,4.18
2023-07-09T18:45:32.570Z,4.25
2023-07-09T18:48:04.021Z,4.90
2023-07-09T18:50:36.080Z,4.22
2023-07-09T18:53:06.816Z,4.38
2023-07-09T18:55:38.008Z,4.47
2023-07-09T18:58:14.818Z,4.60
2023-07-09T19:00:49.497Z,4.45
2023-07-09T19:03:23.278Z,4.70
2023-07-09T19:05:54.396Z,4.60
2023-07-09T19:08:27.001Z,4.72
2023-07-09T19:10:58.164Z,4.60
2023-07-09T19:13:29.012Z,4.38
2023-07-09T19:16:03.672Z,4.57
2023-07-09T19:18:37.316Z,4.70
2023-07-09T19:21:09.289Z,4.30
2023-07-09T19:23:40.183Z,4.22
2023-07-09T19:26:13.855Z,4.57
2023-07-09T19:28:44.852Z,4.38
2023-07-09T19:31:18.479Z,4.93
2023-07-09T19:33:49.538Z,4.75
2023-07-09T19:36:26.576Z,4.53
2023-07-09T19:38:58.890Z,4.50
2023-07-09T19:41:31.004Z,4.30
2023-07-09T19:44:01.819Z,3.90
2023-07-09T19:46:35.683Z,4.47
2023-07-09T19:49:07.512Z,4.00
2023-07-09T19:51:38.422Z,4.05
2023-07-09T19:54:15.827Z,3.83
2023-07-09T19:56:50.159Z,4.07
2023-07-09T19:59:22.918Z,3.90
2023-07-09T20:01:56.322Z,3.92
2023-07-09T20:04:27.612Z,4.10
2023-07-09T20:06:58.606Z,3.80
2023-07-09T20:09:29.499Z,3.90
2023-07-09T20:12:01.548Z,3.88
2023-07-09T20:14:32.572Z,4.43
2023-07-09T20:17:06.041Z,3.78
2023-07-09T20:19:38.420Z,4.40
2023-07-09T20:22:09.770Z,3.90
2023-07-09T20:24:40.721Z,4.13
2023-07-09T20:27:16.155Z,4.90
2023-07-09T20:29:47.408Z,5.47
2023-07-09T20:32:22.409Z,4.45
2023-07-09T20:34:57.376Z,3.97
2023-07-09T20:37:28.198Z,4.00
2023-07-09T20:39:58.921Z,4.10
2023-07-09T20:42:29.703Z,3.83
2023-07-09T20:45:01.128Z,3.42
2023-07-09T20:47:34.645Z,3.88
2023-07-09T20:50:05.668Z,3.67
2023-07-09T20:52:36.473Z,3.47
2023-07-09T20:55:08.201Z,3.60
2023-07-09T20:57:39.670Z,3.60
2023-07-09T21:00:18.118Z,3.30
2023-07-09T21:02:53.046Z,3.50
2023-07-09T21:05:23.790Z,3.65
2023-07-09T21:07:54.966Z,3.50
2023-07-09T21:10:28.650Z,3.40
2023-07-09T21:12:59.390Z,3.50
2023-07-09T21:15:35.064Z,3.55
2023-07-09T21:18:11.394Z,3.40
2023-07-09T21:20:42.324Z,3.35
2023-07-09T21:23:17.891Z,3.72
2023-07-09T21:25:49.014Z,3.70
2023-07-09T21:28:20.193Z,3.75
2023-07-09T21:30:51.138Z,3.50
2023-07-09T21:33:33.233Z,3.58
2023-07-09T21:36:04.402Z,3.35
2023-07-09T21:38:35.464Z,3.63
2023-07-09T21:41:07.077Z,3.60
2023-07-09T21:43:37.967Z,3.67
2023-07-09T21:46:08.800Z,4.25
2023-07-09T21:48:42.251Z,3.75
2023-07-09T21:51:14.296Z,3.67
2023-07-09T21:54:06.820Z,3.35
2023-07-09T21:56:35.993Z,3.65
2023-07-09T21:59:09.627Z,3.50
2023-07-09T22:01:41.033Z,4.00
2023-07-09T22:04:19.658Z,4.13
2023-07-09T22:06:50.445Z,3.78
2023-07-09T22:09:21.238Z,4.15
2023-07-09T22:11:52.145Z,3.90
2023-07-09T22:14:25.348Z,3.83
2023-07-09T22:16:58.336Z,4.13
2023-07-09T22:19:43.674Z,4.25
2023-07-09T22:22:17.197Z,3.60
2023-07-09T22:24:47.962Z,4.75
2023-07-09T22:30:25.877Z,4.13
2023-07-09T22:33:00.455Z,4.25
2023-07-09T22:35:38.671Z,3.90
2023-07-09T22:38:22.037Z,3.90
2023-07-09T22:40:53.634Z,4.00
2023-07-09T22:43:24.423Z,4.25
2023-07-09T22:45:56.083Z,3.58
2023-07-09T22:48:26.858Z,4.38
2023-07-09T22:51:00.344Z,3.97
2023-07-09T22:53:31.221Z,4.18
2023-07-09T22:56:02.101Z,3.95
2023-07-09T22:58:33.181Z,4.03
2023-07-09T23:01:15.237Z,4.30
2023-07-09T23:03:47.379Z,3.95
2023-07-09T23:06:23.226Z,3.55
2023-07-09T23:08:55.283Z,3.90
2023-07-09T23:11:29.391Z,3.78
2023-07-09T23:14:01.018Z,3.78
2023-07-09T23:16:35.125Z,3.85
2023-07-09T23:19:18.568Z,4.05
2023-07-09T23:21:52.072Z,3.67
2023-07-09T23:24:23.235Z,4.78
2023-07-09T23:26:57.659Z,3.85
2023-07-09T23:29:28.470Z,3.93
2023-07-09T23:31:59.274Z,4.15
2023-07-09T23:34:30.060Z,3.92
2023-07-09T23:37:04.796Z,3.72
2023-07-09T23:39:35.553Z,3.63
2023-07-09T23:42:06.530Z,3.42
2023-07-09T23:44:37.376Z,3.92
2023-07-09T23:47:14.776Z,4.03
2023-07-09T23:49:45.589Z,3.63
2023-07-09T23:52:19.015Z,3.70
2023-07-09T23:54:49.890Z,3.78
2023-07-09T23:57:20.797Z,3.85
2023-07-09T23:59:52.195Z,3.63
